createdAt,value
2019-05-10T00:02:53.649Z,38.80
2019-05-10T00:07:16.418Z,38.80
2019-05-10T00:11:42.305Z,38.90
2019-05-10T00:15:46.981Z,38.90
2019-05-10T00:19:51.853Z,38.90
2019-05-10T00:23:56.446Z,38.90
2019-05-10T00:28:00.977Z,38.90
2019-05-10T00:32:05.666Z,38.90
2019-05-10T00:36:10.194Z,39.50
2019-05-10T00:40:14.715Z,38.90
2019-05-10T00:44:19.238Z,38.90
2019-05-10T00:48:23.769Z,38.90
2019-05-10T00:52:28.298Z,38.90
2019-05-10T00:56:32.876Z,39.00
2019-05-10T01:00:37.437Z,39.00
2019-05-10T01:04:41.999Z,39.00
2019-05-10T01:08:46.537Z,39.00
2019-05-10T01:12:51.077Z,39.50
2019-05-10T01:16:55.601Z,39.00
2019-05-10T01:21:00.122Z,39.00
2019-05-10T01:25:06.474Z,39.00
2019-05-10T01:29:10.993Z,39.00
2019-05-10T01:33:15.531Z,39.00
2019-05-10T01:37:20.378Z,39.00
2019-05-10T01:41:24.892Z,39.00
2019-05-10T01:45:29.421Z,39.00
2019-05-10T01:49:33.962Z,39.10
2019-05-10T01:53:38.843Z,39.00
2019-05-10T01:57:43.394Z,39.10
2019-05-10T02:01:47.930Z,39.10
2019-05-10T02:05:52.537Z,39.10
2019-05-10T02:09:57.139Z,39.20
2019-05-10T02:14:01.665Z,39.10
2019-05-10T02:18:06.186Z,39.10
2019-05-10T02:22:10.713Z,39.10
2019-05-10T02:26:15.274Z,39.10
2019-05-10T02:30:20.275Z,39.20
2019-05-10T02:34:24.842Z,39.20
2019-05-10T02:38:29.412Z,39.10
2019-05-10T02:42:34.002Z,39.20
2019-05-10T02:46:38.530Z,39.20
2019-05-10T02:50:43.059Z,39.20
2019-05-10T02:54:47.752Z,39.20
2019-05-10T02:58:55.351Z,39.20
2019-05-10T03:03:00.135Z,39.20
2019-05-10T03:07:05.890Z,39.20
2019-05-10T03:11:13.594Z,39.30
2019-05-10T03:15:18.682Z,39.20
2019-05-10T03:19:23.251Z,39.20
2019-05-10T03:23:28.806Z,39.20
2019-05-10T03:27:34.255Z,39.20
2019-05-10T03:31:38.946Z,39.20
2019-05-10T03:35:43.691Z,39.30
2019-05-10T03:39:48.418Z,39.20
2019-05-10T03:43:52.930Z,39.20
2019-05-10T03:47:57.462Z,39.30
2019-05-10T03:52:02.009Z,39.30
2019-05-10T03:56:06.564Z,39.30
2019-05-10T04:00:12.299Z,39.30
2019-05-10T04:04:17.086Z,39.40
2019-05-10T04:08:21.649Z,39.30
2019-05-10T04:12:26.232Z,39.30
2019-05-10T04:16:30.761Z,39.40
2019-05-10T04:20:35.290Z,39.40
2019-05-10T04:24:39.818Z,39.40
2019-05-10T04:28:44.350Z,39.40
2019-05-10T04:32:48.931Z,39.40
2019-05-10T04:36:53.480Z,39.40
2019-05-10T04:40:58.845Z,39.40
2019-05-10T04:45:03.979Z,39.40
2019-05-10T04:49:08.548Z,39.50
2019-05-10T04:53:13.070Z,39.40
2019-05-10T04:57:17.617Z,39.40
2019-05-10T05:01:22.147Z,39.40
2019-05-10T05:05:26.716Z,39.40
2019-05-10T05:09:31.318Z,39.50
2019-05-10T05:13:36.125Z,39.50
2019-05-10T05:17:40.664Z,39.50
2019-05-10T05:21:45.257Z,39.50
2019-05-10T05:25:49.765Z,39.60
2019-05-10T05:29:54.286Z,39.70
2019-05-10T05:33:59.108Z,39.70
2019-05-10T05:38:04.325Z,39.70
2019-05-10T05:42:09.534Z,39.70
2019-05-10T05:46:14.749Z,39.70
2019-05-10T05:50:19.834Z,40.00
2019-05-10T05:54:24.450Z,39.70
2019-05-10T05:58:29.033Z,39.80
2019-05-10T06:02:33.546Z,39.80
2019-05-10T06:06:38.073Z,39.80
2019-05-10T06:10:44.018Z,39.90
2019-05-10T06:14:50.179Z,39.80
2019-05-10T06:18:55.386Z,39.80
2019-05-10T06:23:06.358Z,39.70
2019-05-10T06:27:05.393Z,39.60
2019-05-10T06:31:09.872Z,39.60
2019-05-10T06:35:19.583Z,39.60
2019-05-10T06:39:20.821Z,39.60
2019-05-10T06:43:25.341Z,39.50
2019-05-10T06:47:29.878Z,39.50
2019-05-10T06:51:34.680Z,39.50
2019-05-10T06:55:39.678Z,39.50
2019-05-10T06:59:44.210Z,39.50
2019-05-10T07:03:48.735Z,39.40
2019-05-10T07:07:53.300Z,39.40
2019-05-10T07:11:57.826Z,39.40
2019-05-10T07:16:02.433Z,39.40
2019-05-10T07:20:08.889Z,39.40
2019-05-10T07:24:18.315Z,39.40
2019-05-10T07:28:18.873Z,39.40
2019-05-10T07:32:24.639Z,39.50
2019-05-10T07:36:30.817Z,39.70
2019-05-10T07:40:35.961Z,39.80
2019-05-10T07:44:41.502Z,39.90
2019-05-10T07:48:52.663Z,39.80
2019-05-10T07:52:52.299Z,39.80
2019-05-10T07:56:56.777Z,39.90
2019-05-10T08:01:02.042Z,39.80
2019-05-10T08:05:10.765Z,39.80
2019-05-10T08:09:13.263Z,40.00
2019-05-10T08:13:21.223Z,40.10
2019-05-10T08:17:24.661Z,40.10
2019-05-10T08:21:29.817Z,40.00
2019-05-10T08:25:36.421Z,40.00
2019-05-10T08:29:42.844Z,39.90
2019-05-10T08:33:56.241Z,39.80
2019-05-10T08:37:52.966Z,39.80
2019-05-10T08:42:04.911Z,39.80
2019-05-10T08:46:03.047Z,40.00
2019-05-10T08:50:26.316Z,40.00
2019-05-10T08:54:13.885Z,40.00
2019-05-10T08:58:21.627Z,39.90
2019-05-10T09:02:29.000Z,39.90
2019-05-10T09:06:30.029Z,39.90
2019-05-10T09:10:34.805Z,40.00
2019-05-10T09:14:39.427Z,40.10
2019-05-10T09:18:50.189Z,40.10
2019-05-10T09:22:49.426Z,40.00
2019-05-10T09:26:56.985Z,40.10
2019-05-10T09:31:06.725Z,40.10
2019-05-10T09:35:09.035Z,40.00
2019-05-10T09:39:17.627Z,40.10
2019-05-10T09:43:21.207Z,40.10
2019-05-10T09:47:24.231Z,39.90
2019-05-10T09:51:30.438Z,39.90
2019-05-10T09:55:34.159Z,40.00
2019-05-10T09:59:38.597Z,39.90
2019-05-10T10:03:44.948Z,40.00
2019-05-10T10:07:48.577Z,40.00
2019-05-10T10:11:57.970Z,39.90
2019-05-10T10:15:58.487Z,39.90
2019-05-10T10:20:02.994Z,39.70
2019-05-10T10:24:15.550Z,39.70
2019-05-10T10:28:19.972Z,39.70
2019-05-10T10:32:24.614Z,39.80
2019-05-10T10:36:27.465Z,39.80
2019-05-10T10:40:35.021Z,39.70
2019-05-10T10:44:38.641Z,39.70
2019-05-10T10:48:43.652Z,39.60
2019-05-10T10:52:48.621Z,39.70
2019-05-10T10:56:53.161Z,39.70
2019-05-10T11:00:57.706Z,39.60
2019-05-10T11:05:02.234Z,39.60
2019-05-10T11:09:08.501Z,39.60
2019-05-10T11:13:18.988Z,39.50
2019-05-10T11:17:18.541Z,39.60
2019-05-10T11:21:23.283Z,39.50
2019-05-10T11:25:29.322Z,39.40
2019-05-10T11:29:33.861Z,39.40
2019-05-10T11:33:41.142Z,39.40
2019-05-10T11:37:45.657Z,39.50
2019-05-10T11:41:53.105Z,39.50
2019-05-10T11:45:55.462Z,39.50
2019-05-10T11:50:06.088Z,39.40
2019-05-10T11:54:05.415Z,39.40
2019-05-10T11:59:04.539Z,39.30
2019-05-10T12:06:21.568Z,39.30
2019-05-10T12:10:26.092Z,39.20
2019-05-10T12:14:30.622Z,39.20
2019-05-10T12:18:36.309Z,39.40
2019-05-10T12:22:47.112Z,39.40
2019-05-10T12:26:36.002Z,39.20
2019-05-10T12:30:52.801Z,39.40
2019-05-10T12:34:57.369Z,39.50
2019-05-10T12:39:01.953Z,39.50
2019-05-10T12:43:06.490Z,39.50
2019-05-10T12:47:11.445Z,39.50
2019-05-10T12:51:16.702Z,39.50
2019-05-10T12:55:21.795Z,39.50
2019-05-10T12:59:29.684Z,39.50
2019-05-10T13:03:33.714Z,39.50
2019-05-10T13:07:37.983Z,39.40
2019-05-10T13:11:42.578Z,39.30
2019-05-10T13:15:47.114Z,39.20
2019-05-10T13:19:52.821Z,39.20
2019-05-10T13:23:58.477Z,39.20
2019-05-10T13:28:03.097Z,39.10
2019-05-10T13:32:07.637Z,38.90
2019-05-10T13:36:12.149Z,38.90
2019-05-10T13:40:17.130Z,38.70
2019-05-10T13:44:21.673Z,38.70
2019-05-10T13:48:26.861Z,38.70
2019-05-10T13:52:38.054Z,38.70
2019-05-10T13:56:44.932Z,39.30
2019-05-10T14:00:43.457Z,38.70
2019-05-10T14:04:47.901Z,38.70
2019-05-10T14:08:52.433Z,38.70
2019-05-10T14:13:02.253Z,38.60
2019-05-10T14:17:02.406Z,38.70
2019-05-10T14:21:06.847Z,38.70
2019-05-10T14:25:11.433Z,38.70
2019-05-10T14:29:15.953Z,38.80
2019-05-10T14:33:20.478Z,38.80
2019-05-10T14:37:25.005Z,38.80
2019-05-10T14:41:29.534Z,38.90
2019-05-10T14:45:34.150Z,38.90
2019-05-10T14:49:42.046Z,39.00
2019-05-10T14:53:44.133Z,39.00
2019-05-10T14:57:48.858Z,39.00
2019-05-10T15:01:53.389Z,39.00
2019-05-10T15:06:01.501Z,39.10
2019-05-10T15:10:05.234Z,38.90
2019-05-10T15:14:10.093Z,39.20
2019-05-10T15:18:14.679Z,39.10
2019-05-10T15:22:23.096Z,39.10
2019-05-10T15:26:24.658Z,39.00
2019-05-10T15:30:29.106Z,39.00
2019-05-10T15:34:33.634Z,38.90
2019-05-10T15:38:40.554Z,39.50
2019-05-10T15:42:43.613Z,38.80
2019-05-10T15:46:48.076Z,39.00
2019-05-10T15:50:52.901Z,39.10
2019-05-10T15:54:57.427Z,39.10
2019-05-10T15:59:02.123Z,39.10
2019-05-10T16:03:06.691Z,39.20
2019-05-10T16:07:14.615Z,39.20
2019-05-10T16:11:19.046Z,39.20
2019-05-10T16:15:22.953Z,39.20
2019-05-10T16:19:27.553Z,39.20
2019-05-10T16:23:32.069Z,39.20
2019-05-10T16:27:41.665Z,39.20
2019-05-10T16:31:42.054Z,39.20
2019-05-10T16:35:49.840Z,39.30
2019-05-10T16:39:51.957Z,39.20
2019-05-10T16:43:58.124Z,39.20
2019-05-10T16:48:05.579Z,39.20
2019-05-10T16:52:08.103Z,39.20
2019-05-10T16:56:13.379Z,39.20
2019-05-10T17:00:19.466Z,39.20
2019-05-10T17:04:24.053Z,39.20
2019-05-10T17:08:30.833Z,39.30
2019-05-10T17:12:34.038Z,39.40
2019-05-10T17:16:38.569Z,39.30
2019-05-10T17:20:45.449Z,39.30
2019-05-10T17:24:48.544Z,39.80
2019-05-10T17:28:52.997Z,39.20
2019-05-10T17:33:03.211Z,39.20
2019-05-10T17:37:03.008Z,39.30
2019-05-10T17:41:07.465Z,39.20
2019-05-10T17:45:12.255Z,39.30
2019-05-10T17:49:18.536Z,39.40
2019-05-10T17:53:24.887Z,39.40
2019-05-10T17:57:29.621Z,39.40
2019-05-10T18:01:34.473Z,39.30
2019-05-10T18:05:41.165Z,39.30
2019-05-10T18:09:46.816Z,39.30
2019-05-10T18:13:51.430Z,39.30
2019-05-10T18:17:57.415Z,39.30
2019-05-10T18:22:05.758Z,39.40
2019-05-10T18:26:07.609Z,39.40
2019-05-10T18:30:13.482Z,39.40
2019-05-10T18:34:18.277Z,39.40
2019-05-10T18:38:22.874Z,39.30
2019-05-10T18:42:28.021Z,39.40
2019-05-10T18:46:34.946Z,39.50
2019-05-10T18:50:44.520Z,39.40
2019-05-10T18:54:44.967Z,39.40
2019-05-10T18:58:49.479Z,39.50
2019-05-10T19:02:55.748Z,39.50
2019-05-10T19:07:09.975Z,39.50
2019-05-10T19:11:06.371Z,39.50
2019-05-10T19:15:15.416Z,39.40
2019-05-10T19:19:18.490Z,39.50
2019-05-10T19:23:23.097Z,39.40
2019-05-10T19:27:27.660Z,39.50
2019-05-10T19:31:38.214Z,39.40
2019-05-10T19:35:37.909Z,39.40
2019-05-10T19:39:42.594Z,39.40
2019-05-10T19:43:50.031Z,39.50
2019-05-10T19:47:55.827Z,39.50
2019-05-10T19:51:58.746Z,39.50
2019-05-10T19:56:04.162Z,39.40
2019-05-10T20:00:09.441Z,39.50
2019-05-10T20:04:13.970Z,39.50
2019-05-10T20:08:18.585Z,39.50
2019-05-10T20:12:24.253Z,39.40
2019-05-10T20:16:28.801Z,39.40
2019-05-10T20:20:33.341Z,39.40
2019-05-10T20:24:37.881Z,39.40
2019-05-10T20:28:42.434Z,39.50
2019-05-10T20:32:46.969Z,39.50
2019-05-10T20:36:51.574Z,39.40
2019-05-10T20:40:56.114Z,39.50
2019-05-10T20:45:07.268Z,39.50
2019-05-10T20:49:06.898Z,39.50
2019-05-10T20:53:11.425Z,39.50
2019-05-10T20:57:17.726Z,39.60
2019-05-10T21:01:22.254Z,39.70
2019-05-10T21:05:26.793Z,39.70
2019-05-10T21:09:31.395Z,39.70
2019-05-10T21:13:35.901Z,39.60
2019-05-10T21:17:40.485Z,39.60
2019-05-10T21:21:45.038Z,39.50
2019-05-10T21:25:49.590Z,39.40
2019-05-10T21:29:54.134Z,39.40
2019-05-10T21:34:09.146Z,39.40
2019-05-10T21:38:04.089Z,39.30
2019-05-10T21:42:08.548Z,39.40
2019-05-10T21:46:13.082Z,39.30
2019-05-10T21:50:17.631Z,39.20
2019-05-10T21:54:22.268Z,39.30
2019-05-10T21:58:26.797Z,39.30
2019-05-10T22:02:31.337Z,39.20
2019-05-10T22:06:35.870Z,39.20
2019-05-10T22:10:40.449Z,39.30
2019-05-10T22:14:44.978Z,39.20
2019-05-10T22:18:51.438Z,39.30
2019-05-10T22:22:55.271Z,39.80
2019-05-10T22:26:59.851Z,39.30
2019-05-10T22:31:05.109Z,39.20
2019-05-10T22:35:11.483Z,39.30
2019-05-10T22:39:16.032Z,39.20
2019-05-10T22:43:20.621Z,39.30
2019-05-10T22:47:25.621Z,39.20
2019-05-10T22:51:30.361Z,39.20
2019-05-10T22:55:34.897Z,38.90
2019-05-10T22:59:39.408Z,39.20
2019-05-10T23:03:43.960Z,39.20
2019-05-10T23:07:48.485Z,39.20
2019-05-10T23:11:53.023Z,39.20
2019-05-10T23:15:58.335Z,39.20
2019-05-10T23:20:02.920Z,39.30
2019-05-10T23:24:07.455Z,39.30
2019-05-10T23:28:11.982Z,39.40
2019-05-10T23:32:16.514Z,39.40
2019-05-10T23:36:21.046Z,39.40
2019-05-10T23:40:25.566Z,39.40
2019-05-10T23:44:30.104Z,39.40
2019-05-10T23:48:34.637Z,39.40
2019-05-10T23:52:39.175Z,39.40
2019-05-10T23:56:43.763Z,39.40
